Aviation Digital Data Service (ADDS)

Output produced by METARs form (1609 UTC 30 July 2015)
found at http://aviationweather.gov/adds/metars/
 
KBWI 301449Z 3015/3118 20007KT P6SM SCT070 BKN150 
     FM301700 23009KT P6SM VCTS BKN060CB 
     TEMPO 3018/3022 4SM -TSRA BKN050CB 
     FM310000 VRB05KT P6SM SCT060 
     FM310400 32008KT P6SM FEW250